Levack, Canada
Current Conditions -  °F | °C
As of 3:00 PM on Thursday 30 Oct 2014 (Local Time) from CYSB Reporting Station
Broken Clouds Broken Clouds  
Wind Chill: 29°   Ceiling: 6800
Heat Index: 36°   Visibility: 20mi
Dew Point: 27°   Wind: 8mph
Humidity: 70%   Direction: 290°WNW
Pressure: 30.01"   Gusts: NA
Location:  46.63°N, 81.38°W
Report Text: CYSB 301900Z 29007KT 250V310 20SM SCT026 BKN068 02/M03 A3001 RMK SC4AC3 SLP179
Loading
Personal Weather Stations






























Interactive Weather Map
Tropical Storm Tracking
New forecast layout! Learn more

10-Day Weather Forecast

Advertisements
Track Severe Weather on mobile